Floathaven Airstrip Airport

WA90 · 华盛顿州, 美国

METAR的历史 WA90 · Floathaven Airstrip Airport

下面你可以看到过去几天的METARs。 选择年份以浏览从2007年开始的旧METAR。

2024年6月12日

时间 代码 天气 温度 能见度 天花板 METAR/SPECI
19:53
V
16 °C 10 mi - 280° 280° 3 kt METAR KBLI 130253Z AUTO 28003KT 10SM CLR 16/05 A3018 RMK AO2 SLP226 T01610050 56012
18:53
V
17 °C 10 mi - Var Var 5 kt METAR KBLI 130153Z AUTO VRB05KT 10SM CLR 17/05 A3019 RMK AO2 SLP230 T01720050
17:53
V
17 °C 10 mi - 360° 360° 0 kt METAR KBLI 130053Z AUTO 10SM CLR 17/05 A3020 RMK AO2 SLP234 T01720050
16:53
V
18 °C 10 mi - 290° 290° 6 kt METAR KBLI 122353Z AUTO 29006KT 10SM CLR 18/05 A3022 RMK AO2 SLP239 T01780050 10178 20111 58011
15:53
V
17 °C 10 mi - 300° 300° 6 kt METAR KBLI 122253Z AUTO 30006KT 10SM CLR 17/05 A3023 RMK AO2 SLP242 T01720050
14:53
V
17 °C 10 mi - 300° 300° 5 kt METAR KBLI 122153Z 30005KT 10SM FEW027 17/08 A3024 RMK AO2 SLP247 T01670078
13:53
V
16 °C 10 mi - Var Var 5 kt METAR KBLI 122053Z VRB05KT 10SM SCT023 16/09 A3025 RMK AO2 SLP250 T01560094 56004
12:53
V
14 °C 10 mi - 170° 170° 6 kt METAR KBLI 121953Z 17006KT 10SM FEW020 FEW070 14/09 A3025 RMK AO2 SLP251 T01440089
11:53
M
13 °C 10 mi 3.000 ft 190° 190° 4 kt METAR KBLI 121853Z 19004KT 10SM BKN030 13/09 A3025 RMK AO2 SLP252 T01280094
11:00
M
12 °C 6 mi 1.500 ft 160° 160° 5 kt METAR KBLI 121800Z 16005KT 6SM BR SCT007 BKN015 OVC065 12/11 A3026 RMK AO2 T01170106
10:53
M
11 °C 5 mi 1.400 ft 360° 360° 0 kt METAR KBLI 121753Z 00000KT 5SM BR SCT005 BKN014 OVC040 11/10 A3026 RMK AO2 RAE1658 SLP254 P0000 60004 T01110100 10117 20100 53006
10:26
M
11 °C 5 mi 1.400 ft Var Var 4 kt METAR KBLI 121726Z VRB04KT 5SM BR SCT005 BKN014 OVC040 11/11 A3026 RMK AO2 RAE1658 P0000 T01060106
09:56
M
10 °C 7 mi 1.900 ft 190° 190° 5 kt METAR KBLI 121656Z 19005KT 7SM -RA FEW005 BKN019 OVC040 10/09 A3026 RMK AO2 P0000 T01000094
09:41
I
10 °C 2 mi 3.900 ft 180° 180° 6 kt METAR KBLI 121641Z 18006KT 2SM R16/5500VP6000FT -RA BR FEW017 BKN039 OVC050 10/09 A3025 RMK AO2 P0003 T01000094
08:53
M
11 °C 10 mi 2.300 ft 180° 180° 8 kt METAR KBLI 121553Z 18008KT 10SM -RA FEW010 BKN023 OVC060 11/09 A3024 RMK AO2 RAE1454B10 SLP248 P0000 T01060089
07:53
V
10 °C 7 mi 4.800 ft 180° 180° 5 kt METAR KBLI 121453Z 18005KT 7SM -RA SCT027 OVC048 10/09 A3023 RMK AO2 RAB22 SLP243 P0001 60001 T01000089 53015
07:30
M
11 °C 6 mi 2.800 ft 190° 190° 3 kt METAR KBLI 121430Z 19003KT 6SM -RA BR BKN028 BKN036 OVC055 11/08 A3022 RMK AO2 RAB22 P0000 T01060083
06:53
V
11 °C 10 mi 4.200 ft 170° 170° 4 kt METAR KBLI 121353Z 17004KT 10SM FEW028 BKN042 OVC050 11/08 A3020 RMK AO2 SLP234 T01060078
05:53
V
10 °C 10 mi 3.300 ft 170° 170° 5 kt METAR KBLI 121253Z AUTO 17005KT 10SM BKN033 OVC060 10/08 A3019 RMK AO2 SLP230 T01000078
04:53
V
10 °C 10 mi 3.800 ft 180° 180° 3 kt METAR KBLI 121153Z AUTO 18003KT 10SM BKN038 OVC045 10/08 A3018 RMK AO2 SLP228 70002 T01000078 10111 20089 53000
03:53
V
9 °C 10 mi 6.000 ft 160° 160° 3 kt METAR KBLI 121053Z AUTO 16003KT 10SM OVC060 09/08 A3018 RMK AO2 SLP227 T00940078
02:53
V
9 °C 10 mi 5.500 ft 180° 180° 4 kt METAR KBLI 120953Z AUTO 18004KT 10SM BKN055 09/07 A3018 RMK AO2 SLP228 T00890072
01:53
V
9 °C 10 mi - 180° 180° 3 kt METAR KBLI 120853Z AUTO 18003KT 10SM CLR 09/07 A3018 RMK AO2 SLP227 T00890072 51006
00:53
V
9 °C 10 mi - 160° 160° 5 kt METAR KBLI 120753Z AUTO 16005KT 10SM FEW050 09/07 A3018 RMK AO2 SLP227 T00940072 401780094

2024年6月11日

时间 代码 天气 温度 能见度 天花板 METAR/SPECI
23:53
V
10 °C 10 mi - 170° 170° 6 kt METAR KBLI 120653Z AUTO 17006KT 10SM CLR 10/08 A3018 RMK AO2 SLP226 T01000078
22:53
V
11 °C 10 mi - 180° 180° 6 kt METAR KBLI 120553Z AUTO 18006KT 10SM CLR 11/07 A3016 RMK AO2 SLP221 T01110072 10161 20111 51012
21:53
V
12 °C 10 mi - 180° 180° 5 kt METAR KBLI 120453Z 18005KT 10SM FEW060 12/07 A3016 RMK AO2 SLP219 T01170067
20:53
V
13 °C 10 mi 5.500 ft 360° 360° 0 kt METAR KBLI 120353Z 00000KT 10SM FEW042 OVC055 13/05 A3014 RMK AO2 SLP213 T01330050
19:53
V
14 °C 10 mi 5.000 ft Var Var 4 kt METAR KBLI 120253Z VRB04KT 10SM OVC050 14/04 A3013 RMK AO2 SLP209 T01390044 53013
18:53
V
14 °C 10 mi 4.900 ft 210° 210° 12 kt METAR KBLI 120153Z 21012KT 10SM OVC049 14/06 A3011 RMK AO2 SLP204 T01390056
17:53
V
14 °C 10 mi 4.600 ft 270° 270° 7 kt METAR KBLI 120053Z 27007KT 230V320 10SM BKN046 14/06 A3010 RMK AO2 SLP201 T01440056
16:53
V
16 °C 10 mi 4.700 ft 280° 280° 9 - 16 kt METAR KBLI 112353Z 28009G16KT 10SM OVC047 16/07 A3009 RMK AO2 SLP195 T01610067 10178 20156 53018
15:53
V
17 °C 10 mi 4.800 ft 200° 200° 7 - 15 kt METAR KBLI 112253Z 20007G15KT 170V240 10SM BKN048 17/09 A3007 RMK AO2 SLP188 T01720089
14:53
V
16 °C 10 mi 4.500 ft 170° 170° 9 - 15 kt METAR KBLI 112153Z 17009G15KT 10SM OVC045 16/11 A3005 RMK AO2 SLP181 T01610106
13:53
V
17 °C 10 mi 4.700 ft 180° 180° 14 - 20 kt METAR KBLI 112053Z 18014G20KT 10SM BKN047 OVC055 17/10 A3004 RMK AO2 SLP177 T01670100 51021
12:53
V
16 °C 10 mi - 180° 180° 12 - 24 kt METAR KBLI 111953Z 18012G24KT 10SM FEW023 SCT080 16/11 A3003 RMK AO2 SLP173 T01560106
11:53
V
17 °C 10 mi - 180° 180° 13 - 24 kt METAR KBLI 111853Z 18013G24KT 150V220 10SM CLR 17/10 A3000 RMK AO2 PK WND 18027/1842 SLP165 T01670100
10:53
V
17 °C 10 mi 7.500 ft 180° 180° 11 - 18 kt METAR KBLI 111753Z 18011G18KT 10SM BKN075 BKN090 17/09 A2998 RMK AO2 SLP156 60002 T01670094 10167 20117 53010
09:53
V
16 °C 10 mi - 170° 170° 12 - 20 kt METAR KBLI 111653Z 17012G20KT 10SM FEW070 FEW090 16/09 A2996 RMK AO2 SLP151 T01560094
08:53
V
14 °C 10 mi 9.000 ft 180° 180° 9 - 17 kt METAR KBLI 111553Z 18009G17KT 10SM FEW075 BKN090 14/11 A2996 RMK AO2 SLP151 T01390106
07:53
V
13 °C 10 mi 8.000 ft 180° 180° 7 kt METAR KBLI 111453Z 18007KT 10SM SCT045 OVC080 13/11 A2995 RMK AO2 RAE15 SLP146 P0000 60002 T01280111 51013
06:53
V
12 °C 10 mi 9.000 ft 200° 200° 6 kt METAR KBLI 111353Z 20006KT 10SM -RA SCT045 OVC090 12/10 A2994 RMK AO2 SLP146 P0001 T01170100
05:53
V
12 °C 9 mi 9.000 ft 200° 200° 5 kt METAR KBLI 111253Z AUTO 20005KT 9SM -RA FEW050 BKN090 OVC110 12/10 A2992 RMK AO2 RAB25 SLP137 P0001 T01170100
04:53
V
13 °C 10 mi 9.000 ft 190° 190° 7 kt METAR KBLI 111153Z AUTO 19007KT 10SM OVC090 13/09 A2991 RMK AO2 SLP133 60000 T01330089 10139 20117 55005
03:53
V
13 °C 10 mi 9.000 ft 180° 180° 7 kt METAR KBLI 111053Z AUTO 18007KT 10SM OVC090 13/10 A2990 RMK AO2 SLP132 T01330100
02:53
V
13 °C 10 mi 10.000 ft 180° 180° 6 kt METAR KBLI 110953Z AUTO 18006KT 10SM OVC100 13/10 A2992 RMK AO2 SLP138 T01330100
01:53
V
13 °C 10 mi 10.000 ft 360° 360° 0 kt METAR KBLI 110853Z AUTO 00000KT 10SM FEW080 OVC100 13/10 A2992 RMK AO2 RAB37E50 SLP138 P0000 60000 T01280100 58012
00:53
V
13 °C 10 mi 10.000 ft 170° 170° 4 kt METAR KBLI 110753Z AUTO 17004KT 10SM OVC100 13/09 A2994 RMK AO2 SLP144 T01330094 401830106

2024年6月10日

时间 代码 天气 温度 能见度 天花板 METAR/SPECI
23:53
V
12 °C 10 mi - 200° 200° 3 kt METAR KBLI 110653Z AUTO 20003KT 10SM CLR 12/10 A2995 RMK AO2 SLP148 T01220100
22:53
V
12 °C 10 mi - 360° 360° 0 kt METAR KBLI 110553Z AUTO 00000KT 10SM CLR 12/10 A2996 RMK AO2 SLP151 T01220100 10183 20117 58013
21:53
V
13 °C 10 mi - 360° 360° 0 kt METAR KBLI 110453Z 00000KT 10SM CLR 13/11 A2998 RMK AO2 SLP158 T01330106
20:53
V
14 °C 10 mi - 360° 360° 0 kt METAR KBLI 110353Z 00000KT 10SM CLR 14/11 A2998 RMK AO2 SLP160 T01440106
19:53
V
17 °C 10 mi - 180° 180° 3 kt METAR KBLI 110253Z 18003KT 10SM CLR 17/10 A3000 RMK AO2 SLP163 T01720100 58029
18:53
V
17 °C 10 mi - 180° 180° 5 kt METAR KBLI 110153Z 18005KT 10SM CLR 17/09 A3002 RMK AO2 SLP173 T01720094
17:53
V
18 °C 10 mi - Var Var 3 kt METAR KBLI 110053Z VRB03KT 10SM CLR 18/08 A3005 RMK AO2 SLP183 T01780083
16:53
V
18 °C 10 mi - Var Var 6 kt METAR KBLI 102353Z VRB06KT 10SM CLR 18/08 A3008 RMK AO2 SLP192 T01780078 10178 20122 58024
15:53
V
17 °C 10 mi - 230° 230° 6 kt METAR KBLI 102253Z 23006KT 10SM CLR 17/09 A3011 RMK AO2 SLP202 T01720089
14:53
V
16 °C 10 mi - Var Var 6 kt METAR KBLI 102153Z VRB06KT 10SM CLR 16/09 A3014 RMK AO2 SLP211 T01610094
13:53
V
16 °C 10 mi - 180° 180° 9 - 16 kt METAR KBLI 102053Z 18009G16KT 10SM CLR 16/10 A3015 RMK AO2 SLP217 T01560100 58008
12:53
V
14 °C 10 mi - 170° 170° 12 - 19 kt METAR KBLI 101953Z 17012G19KT 10SM CLR 14/09 A3016 RMK AO2 SLP222 T01440089
12:03
V
14 °C 10 mi - 170° 170° 12 - 19 kt METAR KBLI 101903Z 17012G19KT 10SM FEW015 SCT021 14/09 A3017 RMK AO2 T01390089
11:53
M
14 °C 10 mi 2.000 ft 190° 190° 10 - 20 kt METAR KBLI 101853Z 19010G20KT 150V210 10SM SCT015 BKN020 14/09 A3017 RMK AO2 SLP223 T01390089
10:53
M
12 °C 10 mi 1.500 ft 180° 180° 10 kt METAR KBLI 101753Z 18010KT 10SM OVC015 12/09 A3017 RMK AO2 SLP225 T01220089 10122 20106 50011
09:53
M
12 °C 10 mi 1.400 ft 180° 180° 7 kt METAR KBLI 101653Z 18007KT 10SM OVC014 12/09 A3018 RMK AO2 SLP225 T01170089
09:00
M
12 °C 10 mi 1.400 ft 160° 160° 11 - 18 kt METAR KBLI 101600Z 16011G18KT 10SM OVC014 12/09 A3016 RMK AO2 T01170089
08:53
M
12 °C 10 mi 1.500 ft 170° 170° 12 kt METAR KBLI 101553Z 17012KT 10SM OVC015 12/09 A3015 RMK AO2 SLP218 T01170089
07:53
M
11 °C 10 mi 1.500 ft 170° 170° 11 - 18 kt METAR KBLI 101453Z 17011G18KT 10SM OVC015 11/09 A3014 RMK AO2 SLP213 T01110089 53010
06:53
M
11 °C 10 mi 1.500 ft 180° 180° 10 - 20 kt METAR KBLI 101353Z AUTO 18010G20KT 10SM OVC015 11/08 A3013 RMK AO2 SLP211 T01060083
05:53
M
11 °C 10 mi 1.600 ft 170° 170° 10 - 20 kt METAR KBLI 101253Z AUTO 17010G20KT 10SM OVC016 11/09 A3011 RMK AO2 SLP204 T01110089
04:53
M
11 °C 10 mi 1.900 ft 170° 170° 11 - 21 kt METAR KBLI 101153Z AUTO 17011G21KT 10SM OVC019 11/09 A3011 RMK AO2 PK WND 19027/1102 SLP202 T01110089 10133 20106 53012
04:36
M
11 °C 10 mi 2.000 ft 170° 170° 12 - 22 kt METAR KBLI 101136Z AUTO 17012G22KT 10SM BKN020 BKN080 11/08 A3010 RMK AO2 PK WND 19027/1102 T01060083
03:53
V
11 °C 10 mi - 180° 180° 15 - 27 kt METAR KBLI 101053Z AUTO 18015G27KT 10SM CLR 11/08 A3010 RMK AO2 PK WND 17031/1018 SLP199 T01060083
02:53
V
12 °C 10 mi - 170° 170° 17 - 26 kt METAR KBLI 100953Z AUTO 17017G26KT 10SM CLR 12/08 A3008 RMK AO2 PK WND 16030/0904 SLP190 T01170083
01:53
V
11 °C 10 mi - 170° 170° 18 - 31 kt METAR KBLI 100853Z AUTO 17018G31KT 10SM CLR 11/09 A3007 RMK AO2 PK WND 15031/0846 SLP190 T01110089 53019
00:53
V
12 °C 10 mi - 170° 170° 16 - 24 kt METAR KBLI 100753Z AUTO 17016G24KT 10SM CLR 12/09 A3005 RMK AO2 PK WND 18029/0655 SLP183 T01170089 401830111

2024年6月9日

时间 代码 天气 温度 能见度 天花板 METAR/SPECI
23:53
V
13 °C 10 mi - 180° 180° 16 - 26 kt METAR KBLI 100653Z AUTO 18016G26KT 10SM CLR 13/09 A3003 RMK AO2 PK WND 19026/0652 SLP176 T01280094
22:53
V
13 °C 10 mi - 180° 180° 15 - 22 kt METAR KBLI 100553Z AUTO 18015G22KT 10SM CLR 13/09 A3002 RMK AO2 PK WND 20031/0457 SLP171 T01330089 10178 20133 53014
报告变更